createdAt,value
2022-10-22T00:01:42.030Z,33.20
2022-10-22T00:04:11.277Z,34.60
2022-10-22T00:06:41.509Z,34.78
2022-10-22T00:09:12.387Z,37.70
2022-10-22T00:11:43.123Z,36.35
2022-10-22T00:14:13.357Z,33.70
2022-10-22T00:16:43.346Z,34.78
2022-10-22T00:19:13.620Z,33.58
2022-10-22T00:21:45.981Z,35.17
2022-10-22T00:24:16.870Z,34.92
2022-10-22T00:26:46.505Z,36.30
2022-10-22T00:29:15.964Z,33.85
2022-10-22T00:31:49.969Z,35.27
2022-10-22T00:34:20.414Z,33.92
2022-10-22T00:36:51.038Z,34.72
2022-10-22T00:39:23.813Z,35.15
2022-10-22T00:41:54.849Z,34.28
2022-10-22T00:47:12.669Z,34.75
2022-10-22T00:49:42.470Z,36.33
2022-10-22T00:52:13.010Z,37.78
2022-10-22T00:54:44.789Z,38.20
2022-10-22T00:57:14.905Z,36.95
2022-10-22T00:59:44.350Z,37.63
2022-10-22T01:02:14.288Z,37.93
2022-10-22T01:04:43.645Z,38.38
2022-10-22T01:07:19.316Z,35.85
2022-10-22T01:10:00.155Z,37.95
2022-10-22T01:12:42.473Z,37.95
2022-10-22T01:15:19.808Z,35.50
2022-10-22T01:17:57.367Z,36.28
2022-10-22T01:20:52.241Z,36.75
2022-10-22T01:23:52.876Z,37.42
2022-10-22T01:26:31.308Z,38.78
2022-10-22T01:29:08.793Z,39.75
2022-10-22T01:31:44.673Z,37.25
2022-10-22T01:34:16.660Z,39.15
2022-10-22T01:36:47.462Z,37.85
2022-10-22T01:39:19.100Z,41.50
2022-10-22T01:41:48.655Z,38.88
2022-10-22T01:44:28.715Z,38.77
2022-10-22T01:47:20.102Z,38.42
2022-10-22T01:50:11.696Z,40.75
2022-10-22T01:53:03.317Z,39.35
2022-10-22T01:55:43.126Z,42.53
2022-10-22T01:58:24.045Z,41.10
2022-10-22T02:01:01.806Z,43.33
2022-10-22T02:03:37.661Z,41.00
2022-10-22T02:06:15.637Z,40.28
2022-10-22T02:08:46.066Z,40.67
2022-10-22T02:11:17.406Z,40.00
2022-10-22T02:13:49.874Z,43.38
2022-10-22T02:16:27.249Z,41.35
2022-10-22T02:19:00.005Z,40.25
2022-10-22T02:21:30.228Z,39.53
2022-10-22T02:24:00.250Z,42.60
2022-10-22T02:26:36.367Z,39.33
2022-10-22T02:29:10.285Z,41.15
2022-10-22T02:31:43.372Z,39.85
2022-10-22T02:34:18.373Z,39.83
2022-10-22T02:36:50.573Z,40.25
2022-10-22T02:39:22.323Z,40.00
2022-10-22T02:41:52.218Z,41.03
2022-10-22T02:44:24.026Z,37.25
2022-10-22T02:46:55.689Z,38.10
2022-10-22T02:51:54.708Z,37.50
2022-10-22T02:54:24.061Z,38.40
2022-10-22T02:56:53.897Z,38.42
2022-10-22T02:59:23.366Z,38.60
2022-10-22T03:01:52.860Z,37.25
2022-10-22T03:04:23.704Z,35.00
2022-10-22T03:06:53.879Z,35.33
2022-10-22T03:09:24.835Z,37.33
2022-10-22T03:11:54.845Z,37.05
2022-10-22T03:14:24.219Z,39.83
2022-10-22T03:16:54.137Z,38.13
2022-10-22T03:19:25.076Z,40.50
2022-10-22T03:21:58.057Z,37.33
2022-10-22T03:24:33.122Z,37.38
2022-10-22T03:27:03.020Z,37.88
2022-10-22T03:29:34.942Z,38.28
2022-10-22T03:32:05.190Z,37.60
2022-10-22T03:34:35.965Z,35.55
2022-10-22T03:37:05.893Z,37.72
2022-10-22T03:39:37.864Z,36.08
2022-10-22T03:42:09.296Z,36.72
2022-10-22T03:47:09.502Z,36.65
2022-10-22T03:49:40.421Z,37.65
2022-10-22T03:52:11.940Z,36.08
2022-10-22T03:57:12.225Z,33.95
2022-10-22T03:59:43.713Z,35.35
2022-10-22T04:02:15.301Z,35.30
2022-10-22T04:07:15.565Z,33.40
2022-10-22T04:09:44.802Z,32.47
2022-10-22T04:12:14.695Z,32.60
2022-10-22T04:14:44.453Z,33.53
2022-10-22T04:17:14.155Z,34.20
2022-10-22T04:19:43.445Z,35.03
2022-10-22T04:22:14.612Z,36.28
2022-10-22T04:24:44.317Z,36.83
2022-10-22T04:27:14.227Z,34.97
2022-10-22T04:29:43.585Z,35.75
2022-10-22T04:32:13.444Z,35.47
2022-10-22T04:34:42.844Z,35.20
2022-10-22T04:37:14.269Z,34.07
2022-10-22T04:39:43.539Z,36.28
2022-10-22T04:42:13.769Z,35.83
2022-10-22T04:44:43.146Z,36.85
2022-10-22T04:47:12.644Z,36.70
2022-10-22T04:49:42.540Z,35.38
2022-10-22T04:52:14.087Z,34.22
2022-10-22T04:57:12.525Z,32.13
2022-10-22T04:59:42.099Z,34.65
2022-10-22T05:02:11.618Z,33.40
2022-10-22T05:04:40.976Z,33.20
2022-10-22T05:07:10.968Z,34.35
2022-10-22T05:09:41.770Z,34.10
2022-10-22T05:12:11.309Z,33.28
2022-10-22T05:14:43.991Z,33.92
2022-10-22T05:17:14.867Z,34.10
2022-10-22T05:19:44.168Z,34.40
2022-10-22T05:22:13.825Z,34.72
2022-10-22T05:24:44.606Z,33.92
2022-10-22T05:27:14.803Z,32.38
2022-10-22T05:29:44.199Z,33.90
2022-10-22T05:32:14.265Z,33.15
2022-10-22T05:34:43.760Z,32.63
2022-10-22T05:37:13.629Z,34.37
2022-10-22T05:39:44.406Z,31.70
2022-10-22T05:42:13.937Z,30.83
2022-10-22T05:44:43.206Z,30.60
2022-10-22T05:47:13.178Z,32.42
2022-10-22T05:49:42.424Z,31.15
2022-10-22T05:52:12.691Z,32.40
2022-10-22T05:54:43.885Z,32.60
2022-10-22T05:57:13.428Z,32.80
2022-10-22T05:59:42.797Z,32.92
2022-10-22T06:02:12.864Z,32.25
2022-10-22T06:04:42.169Z,33.63
2022-10-22T06:07:16.604Z,32.13
2022-10-22T06:09:50.448Z,34.80
2022-10-22T06:12:20.324Z,34.08
2022-10-22T06:14:49.723Z,32.30
2022-10-22T06:17:20.342Z,34.33
2022-10-22T06:19:49.627Z,33.85
2022-10-22T06:22:19.493Z,34.83
2022-10-22T06:24:50.297Z,33.97
2022-10-22T06:27:20.298Z,36.90
2022-10-22T06:29:50.480Z,35.85
2022-10-22T06:32:20.068Z,35.80
2022-10-22T06:34:50.773Z,35.55
2022-10-22T06:37:20.856Z,37.60
2022-10-22T06:39:51.593Z,37.47
2022-10-22T06:44:50.024Z,38.75
2022-10-22T06:47:20.043Z,37.90
2022-10-22T06:49:51.316Z,37.92
2022-10-22T06:52:21.294Z,38.65
2022-10-22T06:54:52.033Z,38.33
2022-10-22T06:57:22.015Z,40.40
2022-10-22T06:59:51.429Z,37.47
2022-10-22T07:02:21.301Z,41.93
2022-10-22T07:04:50.553Z,38.13
2022-10-22T07:07:20.522Z,38.35
2022-10-22T07:09:51.541Z,36.88
2022-10-22T07:12:21.609Z,36.83
2022-10-22T07:14:51.426Z,38.00
2022-10-22T07:17:21.323Z,37.22
2022-10-22T07:19:51.319Z,38.83
2022-10-22T07:22:21.831Z,37.20
2022-10-22T07:24:52.576Z,37.85
2022-10-22T07:27:22.730Z,36.95
2022-10-22T07:29:52.145Z,36.72
2022-10-22T07:32:23.910Z,34.93
2022-10-22T07:34:53.454Z,35.78
2022-10-22T07:37:23.366Z,34.13
2022-10-22T07:39:54.183Z,33.65
2022-10-22T07:42:24.070Z,34.92
2022-10-22T07:44:53.460Z,35.35
2022-10-22T07:47:23.477Z,35.40
2022-10-22T07:49:52.837Z,33.58
2022-10-22T07:52:22.704Z,37.03
2022-10-22T07:54:53.509Z,34.40
2022-10-22T07:57:23.140Z,33.83
2022-10-22T07:59:52.941Z,34.95
2022-10-22T08:02:22.829Z,34.20
2022-10-22T08:04:52.265Z,34.53
2022-10-22T08:07:22.174Z,37.60
2022-10-22T08:09:53.156Z,35.17
2022-10-22T08:12:23.610Z,36.55
2022-10-22T08:14:53.405Z,35.20
2022-10-22T08:17:23.302Z,35.23
2022-10-22T08:19:52.762Z,36.63
2022-10-22T08:22:22.717Z,35.80
2022-10-22T08:24:53.833Z,38.58
2022-10-22T08:27:23.481Z,38.45
2022-10-22T08:29:53.097Z,38.53
2022-10-22T08:32:23.541Z,40.85
2022-10-22T08:34:53.030Z,38.58
2022-10-22T08:37:22.701Z,39.75
2022-10-22T08:39:53.813Z,37.70
2022-10-22T08:42:52.296Z,37.55
2022-10-22T08:45:29.803Z,37.65
2022-10-22T08:48:14.756Z,38.10
2022-10-22T08:50:47.944Z,35.95
2022-10-22T08:53:19.494Z,38.72
2022-10-22T08:58:25.502Z,36.33
2022-10-22T09:01:00.210Z,36.92
2022-10-22T09:03:39.938Z,37.85
2022-10-22T09:06:15.093Z,37.95
2022-10-22T09:08:47.186Z,36.97
2022-10-22T09:11:25.688Z,36.90
2022-10-22T09:13:57.764Z,35.92
2022-10-22T09:16:35.652Z,35.80
2022-10-22T09:19:17.885Z,36.20
2022-10-22T09:21:57.981Z,34.58
2022-10-22T09:24:35.616Z,34.60
2022-10-22T09:27:12.786Z,33.95
2022-10-22T09:29:42.928Z,35.00
2022-10-22T09:32:12.466Z,33.70
2022-10-22T09:34:42.864Z,34.97
2022-10-22T09:37:13.057Z,31.27
2022-10-22T09:39:46.062Z,32.58
2022-10-22T09:42:19.720Z,32.10
2022-10-22T09:44:55.787Z,29.65
2022-10-22T09:47:43.287Z,29.45
2022-10-22T09:50:28.274Z,30.02
2022-10-22T09:53:02.182Z,30.42
2022-10-22T09:55:32.225Z,30.98
2022-10-22T09:58:03.044Z,31.33
2022-10-22T10:00:33.314Z,31.83
2022-10-22T10:03:02.877Z,31.83
2022-10-22T10:05:35.229Z,33.53
2022-10-22T10:08:14.173Z,32.03
2022-10-22T10:10:48.586Z,30.98
2022-10-22T10:13:35.505Z,30.33
2022-10-22T10:16:14.578Z,31.75
2022-10-22T10:18:58.835Z,29.88
2022-10-22T10:21:35.625Z,30.88
2022-10-22T10:24:15.720Z,28.50
2022-10-22T10:26:51.176Z,29.92
2022-10-22T10:32:39.476Z,29.90
2022-10-22T10:35:23.480Z,27.65
2022-10-22T10:38:08.003Z,27.25
2022-10-22T10:40:44.250Z,28.83
2022-10-22T10:43:19.957Z,27.63
2022-10-22T10:46:00.118Z,24.15
2022-10-22T10:48:50.684Z,23.27
2022-10-22T10:51:37.602Z,22.75
2022-10-22T10:54:28.125Z,20.30
2022-10-22T10:57:00.786Z,16.92
2022-10-22T10:59:43.892Z,14.75
2022-10-22T11:02:46.567Z,14.52
2022-10-22T11:05:34.067Z,14.52
2022-10-22T11:08:07.097Z,13.77
2022-10-22T11:10:41.650Z,14.18
2022-10-22T11:13:18.647Z,14.55
2022-10-22T11:15:54.018Z,12.45
2022-10-22T11:18:30.538Z,13.35
2022-10-22T11:21:12.671Z,13.05
2022-10-22T11:23:48.385Z,14.32
2022-10-22T11:26:28.996Z,14.23
2022-10-22T11:29:00.580Z,14.00
2022-10-22T11:31:33.613Z,13.90
2022-10-22T11:34:32.024Z,13.27
2022-10-22T11:36:59.789Z,13.93
2022-10-22T11:39:33.360Z,14.00
2022-10-22T11:42:06.258Z,14.55
2022-10-22T11:44:48.832Z,13.95
2022-10-22T11:47:21.911Z,15.07
2022-10-22T11:50:03.913Z,16.33
2022-10-22T11:52:49.587Z,14.35
2022-10-22T11:55:48.590Z,14.80
2022-10-22T11:58:33.721Z,16.42
2022-10-22T12:01:24.652Z,15.27
2022-10-22T12:03:55.786Z,16.95
2022-10-22T12:06:27.981Z,16.48
2022-10-22T12:09:01.618Z,18.90
2022-10-22T12:11:38.623Z,17.83
2022-10-22T12:14:23.245Z,18.35
2022-10-22T12:16:56.953Z,20.83
2022-10-22T12:19:30.897Z,19.85
2022-10-22T12:22:13.156Z,20.58
2022-10-22T12:24:45.881Z,23.20
2022-10-22T12:27:22.764Z,24.10
2022-10-22T12:29:57.292Z,24.73
2022-10-22T12:32:34.934Z,25.95
2022-10-22T12:35:09.239Z,25.23
2022-10-22T12:37:40.839Z,26.20
2022-10-22T12:40:25.268Z,27.33
2022-10-22T12:42:56.771Z,26.27
2022-10-22T12:45:29.212Z,28.95
2022-10-22T12:48:00.686Z,30.83
2022-10-22T12:50:35.473Z,29.05
2022-10-22T12:53:07.738Z,29.38
2022-10-22T12:55:39.073Z,31.65
2022-10-22T12:58:09.769Z,30.50
2022-10-22T13:00:41.663Z,32.35
2022-10-22T13:03:27.388Z,32.03
2022-10-22T13:05:57.438Z,32.50
2022-10-22T13:08:31.709Z,33.25
2022-10-22T13:11:10.369Z,35.00
2022-10-22T13:13:47.508Z,35.13
2022-10-22T13:16:20.441Z,33.88
2022-10-22T13:18:50.836Z,36.08
2022-10-22T13:21:30.077Z,34.28
2022-10-22T13:24:02.872Z,34.03
2022-10-22T13:26:35.586Z,37.08
2022-10-22T13:29:11.450Z,37.67
2022-10-22T13:31:47.885Z,35.58
2022-10-22T13:34:20.885Z,34.92
2022-10-22T13:36:51.652Z,37.88
2022-10-22T13:39:25.830Z,36.30
2022-10-22T13:41:55.773Z,36.78
2022-10-22T13:44:25.089Z,34.55
2022-10-22T13:46:56.524Z,33.63
2022-10-22T13:49:25.937Z,34.83
2022-10-22T13:51:55.981Z,36.72
2022-10-22T13:54:27.075Z,33.72
2022-10-22T13:56:57.105Z,34.75
2022-10-22T13:59:26.499Z,34.97
2022-10-22T14:01:57.326Z,36.80
2022-10-22T14:04:26.725Z,35.10
2022-10-22T14:06:58.743Z,32.47
2022-10-22T14:09:32.169Z,35.03
2022-10-22T14:12:01.698Z,31.27
2022-10-22T14:14:31.084Z,32.67
2022-10-22T14:17:01.017Z,29.67
2022-10-22T14:19:31.256Z,31.63
2022-10-22T14:24:31.848Z,31.23
2022-10-22T14:27:01.700Z,32.17
2022-10-22T14:29:31.165Z,34.15
2022-10-22T14:32:01.171Z,33.80
2022-10-22T14:34:31.040Z,33.78
2022-10-22T14:37:00.732Z,33.35
2022-10-22T14:39:31.502Z,32.85
2022-10-22T14:42:01.557Z,33.08
2022-10-22T14:44:30.978Z,30.10
2022-10-22T14:47:00.999Z,28.77
2022-10-22T14:49:30.409Z,30.10
2022-10-22T14:52:00.536Z,25.80
2022-10-22T14:54:31.256Z,26.08
2022-10-22T14:57:01.250Z,27.95
2022-10-22T14:59:31.105Z,25.75
2022-10-22T15:02:01.019Z,26.17
2022-10-22T15:04:30.842Z,25.77
2022-10-22T15:07:00.733Z,24.92
2022-10-22T15:09:32.705Z,24.25
2022-10-22T15:12:02.597Z,25.70
2022-10-22T15:14:31.890Z,26.38
2022-10-22T15:17:02.073Z,23.70
2022-10-22T15:19:32.082Z,23.77
2022-10-22T15:22:02.003Z,25.15
2022-10-22T15:24:32.972Z,22.70
2022-10-22T15:27:03.640Z,24.27
2022-10-22T15:29:33.641Z,25.25
2022-10-22T15:32:03.496Z,25.83
2022-10-22T15:34:35.506Z,23.50
2022-10-22T15:37:08.529Z,23.77
2022-10-22T15:39:41.768Z,22.67
2022-10-22T15:42:11.914Z,26.02
2022-10-22T15:44:41.361Z,24.33
2022-10-22T15:47:11.489Z,22.58
2022-10-22T15:49:42.065Z,26.10
2022-10-22T15:52:12.836Z,23.13
2022-10-22T15:54:44.138Z,24.33
2022-10-22T15:57:14.170Z,24.58
2022-10-22T15:59:43.470Z,23.05
2022-10-22T16:02:13.562Z,24.53
2022-10-22T16:04:42.874Z,22.83
2022-10-22T16:07:12.943Z,23.77
2022-10-22T16:09:43.673Z,24.33
2022-10-22T16:12:15.384Z,22.10
2022-10-22T16:14:46.673Z,26.00
2022-10-22T16:17:16.951Z,24.35
2022-10-22T16:19:46.452Z,23.47
2022-10-22T16:22:16.513Z,24.20
2022-10-22T16:24:47.274Z,26.73
2022-10-22T16:27:17.165Z,25.70
2022-10-22T16:29:46.593Z,25.35
2022-10-22T16:32:17.055Z,24.67
2022-10-22T16:34:46.362Z,28.60
2022-10-22T16:37:16.037Z,27.05
2022-10-22T16:39:47.633Z,26.58
2022-10-22T16:42:18.139Z,27.02
2022-10-22T16:44:47.624Z,27.58
2022-10-22T16:47:17.172Z,28.95
2022-10-22T16:49:46.578Z,27.30
2022-10-22T16:52:16.482Z,28.08
2022-10-22T16:54:47.942Z,27.35
2022-10-22T16:57:17.824Z,29.70
2022-10-22T16:59:49.137Z,29.40
2022-10-22T17:02:18.694Z,29.95
2022-10-22T17:04:48.122Z,26.08
2022-10-22T17:07:18.197Z,26.38
2022-10-22T17:09:49.196Z,26.92
2022-10-22T17:12:18.880Z,26.67
2022-10-22T17:14:48.141Z,26.67
2022-10-22T17:17:18.146Z,26.75
2022-10-22T17:19:47.463Z,26.00
2022-10-22T17:22:18.409Z,28.13
2022-10-22T17:24:49.559Z,26.10
2022-10-22T17:27:19.433Z,28.20
2022-10-22T17:29:48.693Z,26.70
2022-10-22T17:32:18.379Z,23.23
2022-10-22T17:34:47.814Z,27.67
2022-10-22T17:37:17.677Z,25.83
2022-10-22T17:39:48.855Z,26.92
2022-10-22T17:42:19.825Z,25.88
2022-10-22T17:44:49.698Z,25.80
2022-10-22T17:47:19.589Z,26.80
2022-10-22T17:49:48.874Z,24.80
2022-10-22T17:52:19.291Z,24.00
2022-10-22T17:54:50.613Z,23.65
2022-10-22T17:57:21.726Z,23.83
2022-10-22T17:59:51.310Z,26.00
2022-10-22T18:02:21.260Z,23.95
2022-10-22T18:04:52.999Z,23.20
2022-10-22T18:07:22.562Z,20.83
2022-10-22T18:09:53.788Z,20.13
2022-10-22T18:12:24.600Z,20.52
2022-10-22T18:14:53.886Z,19.40
2022-10-22T18:17:24.678Z,19.23
2022-10-22T18:19:53.938Z,19.48
2022-10-22T18:22:23.875Z,21.42
2022-10-22T18:24:55.150Z,20.23
2022-10-22T18:27:27.349Z,18.27
2022-10-22T18:29:56.622Z,20.02
2022-10-22T18:32:26.555Z,20.50
2022-10-22T18:34:55.826Z,18.63
2022-10-22T18:37:25.995Z,19.07
2022-10-22T18:39:56.872Z,17.73
2022-10-22T18:42:29.167Z,18.48
2022-10-22T18:45:02.164Z,18.65
2022-10-22T18:47:31.934Z,19.70
2022-10-22T18:50:01.403Z,17.40
2022-10-22T18:52:32.253Z,16.73
2022-10-22T18:55:03.119Z,14.93
2022-10-22T18:57:32.885Z,15.98
2022-10-22T19:00:02.309Z,18.38
2022-10-22T19:02:32.421Z,18.60
2022-10-22T19:05:01.868Z,16.67
2022-10-22T19:07:37.061Z,18.40
2022-10-22T19:10:09.177Z,16.33
2022-10-22T19:12:38.962Z,15.00
2022-10-22T19:15:09.341Z,15.95
2022-10-22T19:20:09.630Z,14.45
2022-10-22T19:22:39.709Z,13.95
2022-10-22T19:25:12.302Z,15.15
2022-10-22T19:27:43.151Z,14.57
2022-10-22T19:30:13.630Z,12.87
2022-10-22T19:32:43.474Z,13.65
2022-10-22T19:35:13.252Z,12.73
2022-10-22T19:37:47.562Z,11.63
2022-10-22T19:40:19.681Z,12.32
2022-10-22T19:42:51.680Z,13.20
2022-10-22T19:45:21.171Z,14.02
2022-10-22T19:47:51.090Z,13.00
2022-10-22T19:50:20.906Z,13.68
2022-10-22T19:52:51.606Z,13.82
2022-10-22T19:55:22.658Z,12.30
2022-10-22T19:57:52.624Z,12.77
2022-10-22T20:00:22.234Z,12.00
2022-10-22T20:02:52.099Z,12.30
2022-10-22T20:07:56.311Z,11.20
2022-10-22T20:10:27.158Z,10.82
2022-10-22T20:12:56.979Z,10.90
2022-10-22T20:15:26.564Z,13.20
2022-10-22T20:17:56.647Z,11.45
2022-10-22T20:20:26.603Z,11.02
2022-10-22T20:22:56.856Z,13.00
2022-10-22T20:25:27.967Z,11.60
2022-10-22T20:27:58.298Z,12.15
2022-10-22T20:30:27.591Z,10.43
2022-10-22T20:32:57.138Z,11.15
2022-10-22T20:35:26.518Z,11.10
2022-10-22T20:37:56.072Z,12.10
2022-10-22T20:40:27.485Z,12.65
2022-10-22T20:42:57.560Z,11.30
2022-10-22T20:45:28.778Z,11.85
2022-10-22T20:48:02.726Z,10.52
2022-10-22T20:50:33.542Z,11.25
2022-10-22T20:53:03.129Z,11.40
2022-10-22T20:55:33.882Z,12.63
2022-10-22T20:58:03.816Z,11.38
2022-10-22T21:00:36.221Z,11.70
2022-10-22T21:03:06.309Z,11.95
2022-10-22T21:05:36.325Z,11.98
2022-10-22T21:08:06.522Z,12.35
2022-10-22T21:10:37.270Z,12.57
2022-10-22T21:13:07.365Z,13.13
2022-10-22T21:15:36.816Z,12.40
2022-10-22T21:18:06.490Z,14.00
2022-10-22T21:20:35.974Z,13.85
2022-10-22T21:23:06.029Z,11.98
2022-10-22T21:25:40.714Z,12.88
2022-10-22T21:28:13.321Z,13.20
2022-10-22T21:30:47.051Z,13.27
2022-10-22T21:33:16.749Z,13.82
2022-10-22T21:35:53.229Z,12.57
2022-10-22T21:38:24.760Z,12.05
2022-10-22T21:43:24.665Z,13.45
2022-10-22T21:46:06.981Z,13.68
2022-10-22T21:48:38.340Z,13.23
2022-10-22T21:51:09.421Z,12.57
2022-10-22T21:53:40.766Z,13.07
2022-10-22T21:56:16.652Z,12.88
2022-10-22T21:58:46.551Z,14.23
2022-10-22T22:01:16.726Z,13.88
2022-10-22T22:08:53.587Z,10.82
2022-10-22T22:11:26.842Z,12.77
2022-10-22T22:13:57.499Z,14.38
2022-10-22T22:16:28.947Z,11.90
2022-10-22T22:19:00.388Z,12.25
2022-10-22T22:23:59.704Z,11.55
2022-10-22T22:26:31.474Z,10.10
2022-10-22T22:29:02.332Z,11.00
2022-10-22T22:31:34.262Z,12.02
2022-10-22T22:34:05.896Z,11.57
2022-10-22T22:36:37.950Z,11.15
2022-10-22T22:39:08.860Z,9.50
2022-10-22T22:41:39.666Z,10.38
2022-10-22T22:44:09.730Z,9.82
2022-10-22T22:46:39.028Z,10.57
2022-10-22T22:49:09.556Z,9.32
2022-10-22T22:51:39.017Z,11.20
2022-10-22T22:54:09.037Z,8.87
2022-10-22T22:56:40.016Z,10.30
2022-10-22T22:59:09.578Z,9.60
2022-10-22T23:01:40.499Z,9.50
2022-10-22T23:04:16.642Z,10.63
2022-10-22T23:06:46.115Z,9.00
2022-10-22T23:09:17.531Z,8.32
2022-10-22T23:14:20.406Z,9.77
2022-10-22T23:16:52.304Z,8.80
2022-10-22T23:19:24.330Z,9.25
2022-10-22T23:21:56.274Z,9.02
2022-10-22T23:24:27.970Z,9.32
2022-10-22T23:27:02.282Z,8.48
2022-10-22T23:29:33.546Z,8.52
2022-10-22T23:32:04.162Z,9.23
2022-10-22T23:34:34.453Z,8.27
2022-10-22T23:37:03.689Z,7.80
2022-10-22T23:39:33.716Z,8.70
2022-10-22T23:42:04.634Z,8.05
2022-10-22T23:44:34.649Z,8.60
2022-10-22T23:47:04.016Z,8.10
2022-10-22T23:49:33.869Z,8.77
2022-10-22T23:52:03.345Z,9.30
2022-10-22T23:54:33.005Z,9.80
2022-10-22T23:57:03.707Z,8.77
2022-10-22T23:59:33.762Z,8.65
